sensor_id;sensor_type;location;lat;lon;timestamp;temperature;humidity
20091;DHT22;10205;49.678;6.560;2022-10-16T00:01:20;18.90;73.40
20091;DHT22;10205;49.678;6.560;2022-10-16T00:03:49;18.90;73.40
20091;DHT22;10205;49.678;6.560;2022-10-16T00:06:20;18.80;73.30
20091;DHT22;10205;49.678;6.560;2022-10-16T00:08:49;18.80;73.20
20091;DHT22;10205;49.678;6.560;2022-10-16T00:11:19;18.80;73.40
20091;DHT22;10205;49.678;6.560;2022-10-16T00:13:48;18.90;73.40
20091;DHT22;10205;49.678;6.560;2022-10-16T00:16:18;18.80;73.30
20091;DHT22;10205;49.678;6.560;2022-10-16T00:18:45;18.80;73.40
20091;DHT22;10205;49.678;6.560;2022-10-16T00:21:15;18.80;73.50
20091;DHT22;10205;49.678;6.560;2022-10-16T00:23:46;18.80;73.60
20091;DHT22;10205;49.678;6.560;2022-10-16T00:26:16;18.80;74.30
20091;DHT22;10205;49.678;6.560;2022-10-16T00:28:45;18.80;73.40
20091;DHT22;10205;49.678;6.560;2022-10-16T00:31:14;18.80;73.40
20091;DHT22;10205;49.678;6.560;2022-10-16T00:33:43;18.80;73.60
20091;DHT22;10205;49.678;6.560;2022-10-16T00:36:13;18.80;73.60
20091;DHT22;10205;49.678;6.560;2022-10-16T00:38:41;18.80;73.80
20091;DHT22;10205;49.678;6.560;2022-10-16T00:41:14;18.80;73.50
20091;DHT22;10205;49.678;6.560;2022-10-16T00:43:44;18.80;73.70
20091;DHT22;10205;49.678;6.560;2022-10-16T00:46:16;18.80;73.50
20091;DHT22;10205;49.678;6.560;2022-10-16T00:48:49;18.80;73.70
20091;DHT22;10205;49.678;6.560;2022-10-16T00:51:23;18.80;74.00
20091;DHT22;10205;49.678;6.560;2022-10-16T00:53:55;18.80;74.10
20091;DHT22;10205;49.678;6.560;2022-10-16T00:56:25;18.80;74.20
20091;DHT22;10205;49.678;6.560;2022-10-16T00:58:52;18.70;74.10
20091;DHT22;10205;49.678;6.560;2022-10-16T01:01:20;18.80;74.00
20091;DHT22;10205;49.678;6.560;2022-10-16T01:03:47;18.70;74.00
20091;DHT22;10205;49.678;6.560;2022-10-16T01:06:25;18.70;74.00
20091;DHT22;10205;49.678;6.560;2022-10-16T01:09:11;18.70;74.30
20091;DHT22;10205;49.678;6.560;2022-10-16T01:11:52;18.70;74.10
20091;DHT22;10205;49.678;6.560;2022-10-16T01:14:32;18.70;74.10
20091;DHT22;10205;49.678;6.560;2022-10-16T01:17:12;18.70;74.20
20091;DHT22;10205;49.678;6.560;2022-10-16T01:19:58;18.60;74.20
20091;DHT22;10205;49.678;6.560;2022-10-16T01:22:43;18.70;74.50
20091;DHT22;10205;49.678;6.560;2022-10-16T01:25:35;18.70;74.40
20091;DHT22;10205;49.678;6.560;2022-10-16T01:28:18;18.60;74.50
20091;DHT22;10205;49.678;6.560;2022-10-16T01:30:52;18.60;74.50
20091;DHT22;10205;49.678;6.560;2022-10-16T01:33:26;18.60;74.50
20091;DHT22;10205;49.678;6.560;2022-10-16T01:36:00;18.60;74.80
20091;DHT22;10205;49.678;6.560;2022-10-16T01:38:36;18.60;74.60
20091;DHT22;10205;49.678;6.560;2022-10-16T01:41:10;18.60;74.70
20091;DHT22;10205;49.678;6.560;2022-10-16T01:43:46;18.60;74.80
20091;DHT22;10205;49.678;6.560;2022-10-16T01:46:20;18.60;74.90
20091;DHT22;10205;49.678;6.560;2022-10-16T01:48:49;18.60;74.80
20091;DHT22;10205;49.678;6.560;2022-10-16T01:51:19;18.60;74.80
20091;DHT22;10205;49.678;6.560;2022-10-16T01:53:50;18.60;74.90
20091;DHT22;10205;49.678;6.560;2022-10-16T01:56:22;18.60;74.90
20091;DHT22;10205;49.678;6.560;2022-10-16T01:58:56;18.60;74.60
20091;DHT22;10205;49.678;6.560;2022-10-16T02:01:29;18.60;74.50
20091;DHT22;10205;49.678;6.560;2022-10-16T02:04:03;18.60;74.60
20091;DHT22;10205;49.678;6.560;2022-10-16T02:06:35;18.60;74.60
20091;DHT22;10205;49.678;6.560;2022-10-16T02:09:03;18.60;74.60
20091;DHT22;10205;49.678;6.560;2022-10-16T02:11:30;18.60;74.40
20091;DHT22;10205;49.678;6.560;2022-10-16T02:14:02;18.60;74.40
20091;DHT22;10205;49.678;6.560;2022-10-16T02:16:36;18.60;74.60
20091;DHT22;10205;49.678;6.560;2022-10-16T02:19:05;18.60;74.50
20091;DHT22;10205;49.678;6.560;2022-10-16T02:21:39;18.60;75.30
20091;DHT22;10205;49.678;6.560;2022-10-16T02:24:17;18.60;74.50
20091;DHT22;10205;49.678;6.560;2022-10-16T02:26:56;18.60;74.40
20091;DHT22;10205;49.678;6.560;2022-10-16T02:29:29;18.60;74.70
20091;DHT22;10205;49.678;6.560;2022-10-16T02:32:00;18.60;74.40
20091;DHT22;10205;49.678;6.560;2022-10-16T02:34:32;18.60;74.30
20091;DHT22;10205;49.678;6.560;2022-10-16T02:37:01;18.60;74.30
20091;DHT22;10205;49.678;6.560;2022-10-16T02:39:32;18.60;74.30
20091;DHT22;10205;49.678;6.560;2022-10-16T02:42:01;18.60;74.40
20091;DHT22;10205;49.678;6.560;2022-10-16T02:44:30;18.60;74.40
20091;DHT22;10205;49.678;6.560;2022-10-16T02:46:57;18.60;74.50
20091;DHT22;10205;49.678;6.560;2022-10-16T02:49:24;18.60;74.40
20091;DHT22;10205;49.678;6.560;2022-10-16T02:51:51;18.60;74.60
20091;DHT22;10205;49.678;6.560;2022-10-16T02:54:19;18.60;74.60
20091;DHT22;10205;49.678;6.560;2022-10-16T02:56:46;18.60;74.60
20091;DHT22;10205;49.678;6.560;2022-10-16T02:59:13;18.60;74.50
20091;DHT22;10205;49.678;6.560;2022-10-16T03:01:41;18.60;74.50
20091;DHT22;10205;49.678;6.560;2022-10-16T03:04:08;18.60;74.80
20091;DHT22;10205;49.678;6.560;2022-10-16T03:06:36;18.50;74.60
20091;DHT22;10205;49.678;6.560;2022-10-16T03:09:03;18.50;74.80
20091;DHT22;10205;49.678;6.560;2022-10-16T03:11:30;18.50;74.80
20091;DHT22;10205;49.678;6.560;2022-10-16T03:13:57;18.60;75.00
20091;DHT22;10205;49.678;6.560;2022-10-16T03:16:24;18.50;74.90
20091;DHT22;10205;49.678;6.560;2022-10-16T03:18:53;18.50;74.80
20091;DHT22;10205;49.678;6.560;2022-10-16T03:21:20;18.50;74.90
20091;DHT22;10205;49.678;6.560;2022-10-16T03:23:48;18.50;75.60
20091;DHT22;10205;49.678;6.560;2022-10-16T03:26:15;18.50;74.70
20091;DHT22;10205;49.678;6.560;2022-10-16T03:28:42;18.60;74.60
20091;DHT22;10205;49.678;6.560;2022-10-16T03:31:09;18.50;74.60
20091;DHT22;10205;49.678;6.560;2022-10-16T03:33:36;18.50;74.70
20091;DHT22;10205;49.678;6.560;2022-10-16T03:36:05;18.50;74.80
20091;DHT22;10205;49.678;6.560;2022-10-16T03:38:33;18.50;74.80
20091;DHT22;10205;49.678;6.560;2022-10-16T03:41:00;18.50;74.90
20091;DHT22;10205;49.678;6.560;2022-10-16T03:43:27;18.50;74.90
20091;DHT22;10205;49.678;6.560;2022-10-16T03:45:54;18.50;74.80
20091;DHT22;10205;49.678;6.560;2022-10-16T03:48:22;18.50;74.70
20091;DHT22;10205;49.678;6.560;2022-10-16T03:50:49;18.50;74.60
20091;DHT22;10205;49.678;6.560;2022-10-16T03:53:18;18.50;74.80
20091;DHT22;10205;49.678;6.560;2022-10-16T03:55:45;18.50;74.80
20091;DHT22;10205;49.678;6.560;2022-10-16T03:58:13;18.50;74.80
20091;DHT22;10205;49.678;6.560;2022-10-16T04:00:40;18.50;74.80
20091;DHT22;10205;49.678;6.560;2022-10-16T04:03:08;18.50;74.70
20091;DHT22;10205;49.678;6.560;2022-10-16T04:05:36;18.50;74.60
20091;DHT22;10205;49.678;6.560;2022-10-16T04:08:03;18.50;74.80
20091;DHT22;10205;49.678;6.560;2022-10-16T04:10:32;18.50;75.50
20091;DHT22;10205;49.678;6.560;2022-10-16T04:12:59;18.60;75.00
20091;DHT22;10205;49.678;6.560;2022-10-16T04:15:26;18.50;74.80
20091;DHT22;10205;49.678;6.560;2022-10-16T04:17:54;18.60;74.60
20091;DHT22;10205;49.678;6.560;2022-10-16T04:20:21;18.50;74.50
20091;DHT22;10205;49.678;6.560;2022-10-16T04:22:48;18.50;75.30
20091;DHT22;10205;49.678;6.560;2022-10-16T04:25:15;18.50;74.40
20091;DHT22;10205;49.678;6.560;2022-10-16T04:27:44;18.50;74.40
20091;DHT22;10205;49.678;6.560;2022-10-16T04:30:11;18.50;74.40
20091;DHT22;10205;49.678;6.560;2022-10-16T04:32:39;18.50;74.40
20091;DHT22;10205;49.678;6.560;2022-10-16T04:35:07;18.50;74.40
20091;DHT22;10205;49.678;6.560;2022-10-16T04:37:34;18.50;74.40
20091;DHT22;10205;49.678;6.560;2022-10-16T04:40:02;18.50;74.40
20091;DHT22;10205;49.678;6.560;2022-10-16T04:42:30;18.50;74.40
20091;DHT22;10205;49.678;6.560;2022-10-16T04:44:58;18.50;74.40
20091;DHT22;10205;49.678;6.560;2022-10-16T04:47:26;18.50;74.50
20091;DHT22;10205;49.678;6.560;2022-10-16T04:49:53;18.60;74.40
20091;DHT22;10205;49.678;6.560;2022-10-16T04:52:20;18.60;74.20
20091;DHT22;10205;49.678;6.560;2022-10-16T04:54:49;18.50;74.10
20091;DHT22;10205;49.678;6.560;2022-10-16T04:57:22;18.50;74.20
20091;DHT22;10205;49.678;6.560;2022-10-16T04:59:49;18.60;74.30
20091;DHT22;10205;49.678;6.560;2022-10-16T05:02:17;18.60;74.20
20091;DHT22;10205;49.678;6.560;2022-10-16T05:04:44;18.50;74.00
20091;DHT22;10205;49.678;6.560;2022-10-16T05:07:12;18.60;74.10
20091;DHT22;10205;49.678;6.560;2022-10-16T05:09:39;18.60;74.40
20091;DHT22;10205;49.678;6.560;2022-10-16T05:12:06;18.60;74.40
20091;DHT22;10205;49.678;6.560;2022-10-16T05:14:33;18.60;74.50
20091;DHT22;10205;49.678;6.560;2022-10-16T05:17:03;18.60;74.40
20091;DHT22;10205;49.678;6.560;2022-10-16T05:19:32;18.60;74.40
20091;DHT22;10205;49.678;6.560;2022-10-16T05:21:59;18.50;74.40
20091;DHT22;10205;49.678;6.560;2022-10-16T05:24:29;18.50;74.50
20091;DHT22;10205;49.678;6.560;2022-10-16T05:26:57;18.60;74.60
20091;DHT22;10205;49.678;6.560;2022-10-16T05:29:24;18.50;74.40
20091;DHT22;10205;49.678;6.560;2022-10-16T05:31:52;18.50;74.30
20091;DHT22;10205;49.678;6.560;2022-10-16T05:34:20;18.50;74.40
20091;DHT22;10205;49.678;6.560;2022-10-16T05:36:49;18.50;74.40
20091;DHT22;10205;49.678;6.560;2022-10-16T05:39:17;18.50;74.60
20091;DHT22;10205;49.678;6.560;2022-10-16T05:41:44;18.50;74.50
20091;DHT22;10205;49.678;6.560;2022-10-16T05:44:11;18.50;74.40
20091;DHT22;10205;49.678;6.560;2022-10-16T05:46:39;18.50;74.40
20091;DHT22;10205;49.678;6.560;2022-10-16T05:49:06;18.50;74.50
20091;DHT22;10205;49.678;6.560;2022-10-16T05:51:33;18.50;74.40
20091;DHT22;10205;49.678;6.560;2022-10-16T05:54:01;18.50;74.40
20091;DHT22;10205;49.678;6.560;2022-10-16T05:56:29;18.50;74.40
20091;DHT22;10205;49.678;6.560;2022-10-16T05:58:56;18.50;74.50
20091;DHT22;10205;49.678;6.560;2022-10-16T06:01:23;18.50;74.40
20091;DHT22;10205;49.678;6.560;2022-10-16T06:03:51;18.50;74.20
20091;DHT22;10205;49.678;6.560;2022-10-16T06:06:21;18.50;74.20
20091;DHT22;10205;49.678;6.560;2022-10-16T06:08:52;18.50;74.10
20091;DHT22;10205;49.678;6.560;2022-10-16T06:11:23;18.50;74.10
20091;DHT22;10205;49.678;6.560;2022-10-16T06:13:53;18.60;74.10
20091;DHT22;10205;49.678;6.560;2022-10-16T06:16:22;18.50;74.00
20091;DHT22;10205;49.678;6.560;2022-10-16T06:18:51;18.60;74.10
20091;DHT22;10205;49.678;6.560;2022-10-16T06:21:20;18.50;74.00
20091;DHT22;10205;49.678;6.560;2022-10-16T06:23:51;18.60;74.40
20091;DHT22;10205;49.678;6.560;2022-10-16T06:26:22;18.60;74.40
20091;DHT22;10205;49.678;6.560;2022-10-16T06:28:50;18.50;74.10
20091;DHT22;10205;49.678;6.560;2022-10-16T06:31:18;18.50;74.10
20091;DHT22;10205;49.678;6.560;2022-10-16T06:33:45;18.50;74.20
20091;DHT22;10205;49.678;6.560;2022-10-16T06:36:14;18.50;74.40
20091;DHT22;10205;49.678;6.560;2022-10-16T06:38:42;18.50;74.40
20091;DHT22;10205;49.678;6.560;2022-10-16T06:41:12;18.50;74.50
20091;DHT22;10205;49.678;6.560;2022-10-16T06:43:41;18.50;74.40
20091;DHT22;10205;49.678;6.560;2022-10-16T06:46:11;18.50;74.30
20091;DHT22;10205;49.678;6.560;2022-10-16T06:48:39;18.50;74.40
20091;DHT22;10205;49.678;6.560;2022-10-16T06:51:09;18.50;74.40
20091;DHT22;10205;49.678;6.560;2022-10-16T06:53:41;18.50;74.70
20091;DHT22;10205;49.678;6.560;2022-10-16T06:56:12;18.50;74.70
20091;DHT22;10205;49.678;6.560;2022-10-16T06:58:43;18.50;74.80
20091;DHT22;10205;49.678;6.560;2022-10-16T07:01:11;18.50;74.90
20091;DHT22;10205;49.678;6.560;2022-10-16T07:03:41;18.50;74.60
20091;DHT22;10205;49.678;6.560;2022-10-16T07:06:11;18.50;75.70
20091;DHT22;10205;49.678;6.560;2022-10-16T07:08:41;18.50;75.00
20091;DHT22;10205;49.678;6.560;2022-10-16T07:11:11;18.50;75.10
20091;DHT22;10205;49.678;6.560;2022-10-16T07:13:42;18.50;74.90
20091;DHT22;10205;49.678;6.560;2022-10-16T07:16:12;18.50;74.80
20091;DHT22;10205;49.678;6.560;2022-10-16T07:18:41;18.50;74.90
20091;DHT22;10205;49.678;6.560;2022-10-16T07:21:13;18.50;74.80
20091;DHT22;10205;49.678;6.560;2022-10-16T07:23:41;18.50;74.80
20091;DHT22;10205;49.678;6.560;2022-10-16T07:26:10;18.50;75.10
20091;DHT22;10205;49.678;6.560;2022-10-16T07:28:38;18.50;75.10
20091;DHT22;10205;49.678;6.560;2022-10-16T07:31:10;18.50;75.30
20091;DHT22;10205;49.678;6.560;2022-10-16T07:33:40;18.50;75.50
20091;DHT22;10205;49.678;6.560;2022-10-16T07:36:10;18.60;75.50
20091;DHT22;10205;49.678;6.560;2022-10-16T07:38:38;18.60;75.40
20091;DHT22;10205;49.678;6.560;2022-10-16T07:41:07;18.60;75.40
20091;DHT22;10205;49.678;6.560;2022-10-16T07:43:38;18.50;75.30
20091;DHT22;10205;49.678;6.560;2022-10-16T07:46:06;18.60;75.50
20091;DHT22;10205;49.678;6.560;2022-10-16T07:48:34;18.60;75.50
20091;DHT22;10205;49.678;6.560;2022-10-16T07:51:03;18.50;75.70
20091;DHT22;10205;49.678;6.560;2022-10-16T07:53:33;18.60;75.80
20091;DHT22;10205;49.678;6.560;2022-10-16T07:56:01;18.60;76.10
20091;DHT22;10205;49.678;6.560;2022-10-16T07:58:31;18.60;75.70
20091;DHT22;10205;49.678;6.560;2022-10-16T08:01:03;18.60;75.50
20091;DHT22;10205;49.678;6.560;2022-10-16T08:03:33;18.60;75.40
20091;DHT22;10205;49.678;6.560;2022-10-16T08:06:00;18.60;75.50
20091;DHT22;10205;49.678;6.560;2022-10-16T08:08:28;18.60;75.30
20091;DHT22;10205;49.678;6.560;2022-10-16T08:10:56;18.60;75.40
20091;DHT22;10205;49.678;6.560;2022-10-16T08:13:23;18.70;75.50
20091;DHT22;10205;49.678;6.560;2022-10-16T08:15:53;18.70;75.80
20091;DHT22;10205;49.678;6.560;2022-10-16T08:18:20;18.60;75.60
20091;DHT22;10205;49.678;6.560;2022-10-16T08:20:56;18.70;75.40
20091;DHT22;10205;49.678;6.560;2022-10-16T08:23:26;18.70;75.40
20091;DHT22;10205;49.678;6.560;2022-10-16T08:25:53;18.70;75.50
20091;DHT22;10205;49.678;6.560;2022-10-16T08:28:22;18.70;75.40
20091;DHT22;10205;49.678;6.560;2022-10-16T08:30:49;18.70;75.40
20091;DHT22;10205;49.678;6.560;2022-10-16T08:33:18;18.70;75.50
20091;DHT22;10205;49.678;6.560;2022-10-16T08:35:50;18.70;75.30
20091;DHT22;10205;49.678;6.560;2022-10-16T08:38:20;18.70;75.50
20091;DHT22;10205;49.678;6.560;2022-10-16T08:40:48;18.80;75.80
20091;DHT22;10205;49.678;6.560;2022-10-16T08:43:25;18.70;75.40
20091;DHT22;10205;49.678;6.560;2022-10-16T08:46:15;18.80;76.10
20091;DHT22;10205;49.678;6.560;2022-10-16T08:48:52;18.70;75.80
20091;DHT22;10205;49.678;6.560;2022-10-16T08:51:24;18.80;76.00
20091;DHT22;10205;49.678;6.560;2022-10-16T08:53:56;18.80;76.60
20091;DHT22;10205;49.678;6.560;2022-10-16T08:56:25;18.80;75.50
20091;DHT22;10205;49.678;6.560;2022-10-16T08:58:53;18.80;75.20
20091;DHT22;10205;49.678;6.560;2022-10-16T09:01:22;18.80;75.70
20091;DHT22;10205;49.678;6.560;2022-10-16T09:04:09;18.80;75.70
20091;DHT22;10205;49.678;6.560;2022-10-16T09:06:57;18.90;75.80
20091;DHT22;10205;49.678;6.560;2022-10-16T09:09:41;18.80;75.30
20091;DHT22;10205;49.678;6.560;2022-10-16T09:12:21;18.80;75.60
20091;DHT22;10205;49.678;6.560;2022-10-16T09:15:03;18.90;75.90
20091;DHT22;10205;49.678;6.560;2022-10-16T09:17:51;18.90;75.40
20091;DHT22;10205;49.678;6.560;2022-10-16T09:20:34;18.90;75.60
20091;DHT22;10205;49.678;6.560;2022-10-16T09:23:52;18.90;76.00
20091;DHT22;10205;49.678;6.560;2022-10-16T09:28:55;18.90;75.30
20091;DHT22;10205;49.678;6.560;2022-10-16T09:31:25;19.00;76.00
20091;DHT22;10205;49.678;6.560;2022-10-16T09:33:55;19.00;76.00
20091;DHT22;10205;49.678;6.560;2022-10-16T09:36:25;19.00;76.10
20091;DHT22;10205;49.678;6.560;2022-10-16T09:39:05;19.00;76.10
20091;DHT22;10205;49.678;6.560;2022-10-16T09:41:34;19.00;76.00
20091;DHT22;10205;49.678;6.560;2022-10-16T09:44:13;19.00;75.90
20091;DHT22;10205;49.678;6.560;2022-10-16T09:46:46;19.00;76.50
20091;DHT22;10205;49.678;6.560;2022-10-16T09:49:21;19.10;76.50
20091;DHT22;10205;49.678;6.560;2022-10-16T09:51:50;19.10;76.70
20091;DHT22;10205;49.678;6.560;2022-10-16T09:54:28;19.10;76.90
20091;DHT22;10205;49.678;6.560;2022-10-16T09:57:04;19.10;77.00
20091;DHT22;10205;49.678;6.560;2022-10-16T09:59:34;19.10;76.80
20091;DHT22;10205;49.678;6.560;2022-10-16T10:02:14;19.20;77.50
20091;DHT22;10205;49.678;6.560;2022-10-16T10:04:48;19.20;77.40
20091;DHT22;10205;49.678;6.560;2022-10-16T10:07:23;19.20;76.70
20091;DHT22;10205;49.678;6.560;2022-10-16T10:09:52;19.20;76.90
20091;DHT22;10205;49.678;6.560;2022-10-16T10:12:22;19.30;77.00
20091;DHT22;10205;49.678;6.560;2022-10-16T10:14:53;19.30;77.30
20091;DHT22;10205;49.678;6.560;2022-10-16T10:17:24;19.40;77.40
20091;DHT22;10205;49.678;6.560;2022-10-16T10:19:54;19.40;76.90
20091;DHT22;10205;49.678;6.560;2022-10-16T10:22:29;19.40;76.90
20091;DHT22;10205;49.678;6.560;2022-10-16T10:25:15;19.40;77.10
20091;DHT22;10205;49.678;6.560;2022-10-16T10:28:07;19.50;77.10
20091;DHT22;10205;49.678;6.560;2022-10-16T10:30:59;19.50;76.90
20091;DHT22;10205;49.678;6.560;2022-10-16T10:33:37;19.60;77.00
20091;DHT22;10205;49.678;6.560;2022-10-16T10:36:21;19.60;76.70
20091;DHT22;10205;49.678;6.560;2022-10-16T10:38:58;19.70;76.90
20091;DHT22;10205;49.678;6.560;2022-10-16T10:41:46;19.70;76.40
20091;DHT22;10205;49.678;6.560;2022-10-16T10:44:47;19.70;76.80
20091;DHT22;10205;49.678;6.560;2022-10-16T10:47:30;19.80;76.30
20091;DHT22;10205;49.678;6.560;2022-10-16T10:50:17;19.80;75.60
20091;DHT22;10205;49.678;6.560;2022-10-16T10:52:58;19.80;75.50
20091;DHT22;10205;49.678;6.560;2022-10-16T10:55:39;19.80;75.90
20091;DHT22;10205;49.678;6.560;2022-10-16T10:58:34;19.90;75.20
20091;DHT22;10205;49.678;6.560;2022-10-16T11:01:16;19.90;75.70
20091;DHT22;10205;49.678;6.560;2022-10-16T11:04:20;20.00;75.90
20091;DHT22;10205;49.678;6.560;2022-10-16T11:07:15;20.00;75.90
20091;DHT22;10205;49.678;6.560;2022-10-16T11:09:47;20.00;76.20
20091;DHT22;10205;49.678;6.560;2022-10-16T11:12:21;20.00;75.90
20091;DHT22;10205;49.678;6.560;2022-10-16T11:14:58;20.10;76.00
20091;DHT22;10205;49.678;6.560;2022-10-16T11:17:44;20.10;75.80
20091;DHT22;10205;49.678;6.560;2022-10-16T11:20:19;20.10;75.50
20091;DHT22;10205;49.678;6.560;2022-10-16T11:22:54;20.10;75.70
20091;DHT22;10205;49.678;6.560;2022-10-16T11:25:26;20.10;75.60
20091;DHT22;10205;49.678;6.560;2022-10-16T11:28:01;20.10;75.70
20091;DHT22;10205;49.678;6.560;2022-10-16T11:30:41;20.20;75.50
20091;DHT22;10205;49.678;6.560;2022-10-16T11:33:29;20.20;75.10
20091;DHT22;10205;49.678;6.560;2022-10-16T11:36:08;20.20;74.80
20091;DHT22;10205;49.678;6.560;2022-10-16T11:38:45;20.20;75.20
20091;DHT22;10205;49.678;6.560;2022-10-16T11:41:22;20.30;75.10
20091;DHT22;10205;49.678;6.560;2022-10-16T11:44:09;20.30;74.50
20091;DHT22;10205;49.678;6.560;2022-10-16T11:46:48;20.30;75.40
20091;DHT22;10205;49.678;6.560;2022-10-16T11:49:21;20.30;75.20
20091;DHT22;10205;49.678;6.560;2022-10-16T11:51:59;20.40;75.10
20091;DHT22;10205;49.678;6.560;2022-10-16T11:54:39;20.40;74.80
20091;DHT22;10205;49.678;6.560;2022-10-16T11:57:15;20.40;76.40
20091;DHT22;10205;49.678;6.560;2022-10-16T11:59:50;20.40;75.70
20091;DHT22;10205;49.678;6.560;2022-10-16T12:02:35;20.50;75.10
20091;DHT22;10205;49.678;6.560;2022-10-16T12:05:20;20.50;75.00
20091;DHT22;10205;49.678;6.560;2022-10-16T12:07:59;20.50;74.70
20091;DHT22;10205;49.678;6.560;2022-10-16T12:10:33;20.50;74.80
20091;DHT22;10205;49.678;6.560;2022-10-16T12:13:03;20.60;74.80
20091;DHT22;10205;49.678;6.560;2022-10-16T12:15:33;20.60;74.70
20091;DHT22;10205;49.678;6.560;2022-10-16T12:18:01;20.60;75.00
20091;DHT22;10205;49.678;6.560;2022-10-16T12:20:30;20.60;74.70
20091;DHT22;10205;49.678;6.560;2022-10-16T12:23:01;20.60;74.50
20091;DHT22;10205;49.678;6.560;2022-10-16T12:25:32;20.60;74.20
20091;DHT22;10205;49.678;6.560;2022-10-16T12:28:03;20.70;74.60
20091;DHT22;10205;49.678;6.560;2022-10-16T12:30:35;20.70;74.20
20091;DHT22;10205;49.678;6.560;2022-10-16T12:33:05;20.70;73.70
20091;DHT22;10205;49.678;6.560;2022-10-16T12:35:46;20.70;73.60
20091;DHT22;10205;49.678;6.560;2022-10-16T12:38:18;20.70;73.80
20091;DHT22;10205;49.678;6.560;2022-10-16T12:40:56;20.80;73.90
20091;DHT22;10205;49.678;6.560;2022-10-16T12:43:37;20.80;73.30
20091;DHT22;10205;49.678;6.560;2022-10-16T12:46:24;20.80;73.00
20091;DHT22;10205;49.678;6.560;2022-10-16T12:49:23;20.80;73.20
20091;DHT22;10205;49.678;6.560;2022-10-16T12:51:57;20.80;73.10
20091;DHT22;10205;49.678;6.560;2022-10-16T12:54:28;20.90;73.00
20091;DHT22;10205;49.678;6.560;2022-10-16T12:57:09;20.90;73.00
20091;DHT22;10205;49.678;6.560;2022-10-16T12:59:53;20.90;74.00
20091;DHT22;10205;49.678;6.560;2022-10-16T13:03:11;20.90;74.20
20091;DHT22;10205;49.678;6.560;2022-10-16T13:06:06;20.90;74.20
20091;DHT22;10205;49.678;6.560;2022-10-16T13:08:57;21.00;73.80
20091;DHT22;10205;49.678;6.560;2022-10-16T13:11:50;21.00;73.60
20091;DHT22;10205;49.678;6.560;2022-10-16T13:17:33;21.00;74.70
20091;DHT22;10205;49.678;6.560;2022-10-16T13:20:16;21.00;73.40
20091;DHT22;10205;49.678;6.560;2022-10-16T13:22:54;21.00;73.20
20091;DHT22;10205;49.678;6.560;2022-10-16T13:25:39;21.10;73.20
20091;DHT22;10205;49.678;6.560;2022-10-16T13:28:17;21.10;73.00
20091;DHT22;10205;49.678;6.560;2022-10-16T13:30:52;21.10;73.40
20091;DHT22;10205;49.678;6.560;2022-10-16T13:33:33;21.10;73.10
20091;DHT22;10205;49.678;6.560;2022-10-16T13:36:04;21.10;72.90
20091;DHT22;10205;49.678;6.560;2022-10-16T13:38:33;21.10;73.10
20091;DHT22;10205;49.678;6.560;2022-10-16T13:41:04;21.20;72.90
20091;DHT22;10205;49.678;6.560;2022-10-16T13:43:35;21.20;72.80
20091;DHT22;10205;49.678;6.560;2022-10-16T13:46:06;21.20;73.00
20091;DHT22;10205;49.678;6.560;2022-10-16T13:48:38;21.20;72.90
20091;DHT22;10205;49.678;6.560;2022-10-16T13:51:11;21.20;72.90
20091;DHT22;10205;49.678;6.560;2022-10-16T13:53:41;21.30;73.30
20091;DHT22;10205;49.678;6.560;2022-10-16T13:56:13;21.30;73.30
20091;DHT22;10205;49.678;6.560;2022-10-16T13:58:44;21.30;73.10
20091;DHT22;10205;49.678;6.560;2022-10-16T14:01:17;21.30;73.00
20091;DHT22;10205;49.678;6.560;2022-10-16T14:04:02;21.30;73.00
20091;DHT22;10205;49.678;6.560;2022-10-16T14:06:32;21.30;73.00
20091;DHT22;10205;49.678;6.560;2022-10-16T14:09:05;21.40;72.90
20091;DHT22;10205;49.678;6.560;2022-10-16T14:11:38;21.40;72.80
20091;DHT22;10205;49.678;6.560;2022-10-16T14:14:14;21.40;72.90
20091;DHT22;10205;49.678;6.560;2022-10-16T14:16:43;21.40;72.70
20091;DHT22;10205;49.678;6.560;2022-10-16T14:19:17;21.40;72.80
20091;DHT22;10205;49.678;6.560;2022-10-16T14:21:47;21.40;72.80
20091;DHT22;10205;49.678;6.560;2022-10-16T14:24:27;21.40;72.40
20091;DHT22;10205;49.678;6.560;2022-10-16T14:26:59;21.40;72.30
20091;DHT22;10205;49.678;6.560;2022-10-16T14:29:29;21.40;72.50
20091;DHT22;10205;49.678;6.560;2022-10-16T14:31:59;21.40;72.10
20091;DHT22;10205;49.678;6.560;2022-10-16T14:34:29;21.40;72.30
20091;DHT22;10205;49.678;6.560;2022-10-16T14:37:00;21.40;72.20
20091;DHT22;10205;49.678;6.560;2022-10-16T14:39:33;21.40;72.10
20091;DHT22;10205;49.678;6.560;2022-10-16T14:42:01;21.50;72.10
20091;DHT22;10205;49.678;6.560;2022-10-16T14:44:32;21.50;72.30
20091;DHT22;10205;49.678;6.560;2022-10-16T14:47:08;21.50;72.10
20091;DHT22;10205;49.678;6.560;2022-10-16T14:49:41;21.50;72.10
20091;DHT22;10205;49.678;6.560;2022-10-16T14:52:10;21.50;72.00
20091;DHT22;10205;49.678;6.560;2022-10-16T14:54:37;21.50;72.00
20091;DHT22;10205;49.678;6.560;2022-10-16T14:57:05;21.50;72.10
20091;DHT22;10205;49.678;6.560;2022-10-16T14:59:41;21.50;72.10
20091;DHT22;10205;49.678;6.560;2022-10-16T15:02:23;21.50;72.00
20091;DHT22;10205;49.678;6.560;2022-10-16T15:04:55;21.50;71.90
20091;DHT22;10205;49.678;6.560;2022-10-16T15:07:23;21.50;72.00
20091;DHT22;10205;49.678;6.560;2022-10-16T15:09:51;21.50;72.00
20091;DHT22;10205;49.678;6.560;2022-10-16T15:12:19;21.50;72.00
20091;DHT22;10205;49.678;6.560;2022-10-16T15:14:50;21.50;72.10
20091;DHT22;10205;49.678;6.560;2022-10-16T15:17:17;21.50;72.00
20091;DHT22;10205;49.678;6.560;2022-10-16T15:19:45;21.50;72.20
20091;DHT22;10205;49.678;6.560;2022-10-16T15:22:12;21.60;72.30
20091;DHT22;10205;49.678;6.560;2022-10-16T15:24:39;21.50;72.20
20091;DHT22;10205;49.678;6.560;2022-10-16T15:27:06;21.50;72.30
20091;DHT22;10205;49.678;6.560;2022-10-16T15:29:33;21.60;72.30
20091;DHT22;10205;49.678;6.560;2022-10-16T15:32:02;21.60;72.20
20091;DHT22;10205;49.678;6.560;2022-10-16T15:34:30;21.60;72.10
20091;DHT22;10205;49.678;6.560;2022-10-16T15:36:57;21.60;72.30
20091;DHT22;10205;49.678;6.560;2022-10-16T15:39:25;21.60;72.10
20091;DHT22;10205;49.678;6.560;2022-10-16T15:41:52;21.60;72.00
20091;DHT22;10205;49.678;6.560;2022-10-16T15:44:21;21.60;72.00
20091;DHT22;10205;49.678;6.560;2022-10-16T15:46:51;21.60;72.80
20091;DHT22;10205;49.678;6.560;2022-10-16T15:49:23;21.60;71.90
20091;DHT22;10205;49.678;6.560;2022-10-16T15:51:50;21.60;71.90
20091;DHT22;10205;49.678;6.560;2022-10-16T15:54:18;21.60;71.90
20091;DHT22;10205;49.678;6.560;2022-10-16T15:56:48;21.60;71.90
20091;DHT22;10205;49.678;6.560;2022-10-16T15:59:15;21.60;71.90
20091;DHT22;10205;49.678;6.560;2022-10-16T16:01:42;21.60;72.80
20091;DHT22;10205;49.678;6.560;2022-10-16T16:04:09;21.60;71.90
20091;DHT22;10205;49.678;6.560;2022-10-16T16:06:39;21.60;71.90
20091;DHT22;10205;49.678;6.560;2022-10-16T16:09:10;21.60;71.70